sensor_id;sensor_type;location;lat;lon;timestamp;pressure;altitude;pressure_sealevel;temperature;humidity
5053;BME280;2545;50.892;5.740;2022-09-03T00:02:39;100133.28;;;17.92;53.86
5053;BME280;2545;50.892;5.740;2022-09-03T00:05:23;100144.72;;;17.76;55.50
5053;BME280;2545;50.892;5.740;2022-09-03T00:08:13;100136.66;;;17.42;56.84
5053;BME280;2545;50.892;5.740;2022-09-03T00:10:56;100121.88;;;17.20;57.48
5053;BME280;2545;50.892;5.740;2022-09-03T00:13:32;100124.13;;;17.23;57.34
5053;BME280;2545;50.892;5.740;2022-09-03T00:15:59;100130.41;;;17.28;57.20
5053;BME280;2545;50.892;5.740;2022-09-03T00:18:30;100127.75;;;17.07;59.37
5053;BME280;2545;50.892;5.740;2022-09-03T00:21:01;100116.28;;;16.94;59.13
5053;BME280;2545;50.892;5.740;2022-09-03T00:23:34;100125.13;;;16.93;59.72
5053;BME280;2545;50.892;5.740;2022-09-03T00:26:24;100123.38;;;16.85;59.94
5053;BME280;2545;50.892;5.740;2022-09-03T00:29:01;100114.13;;;16.82;59.70
5053;BME280;2545;50.892;5.740;2022-09-03T00:34:23;100129.50;;;16.77;60.72
5053;BME280;2545;50.892;5.740;2022-09-03T00:36:52;100119.88;;;16.78;59.79
5053;BME280;2545;50.892;5.740;2022-09-03T00:39:20;100124.75;;;16.81;59.18
5053;BME280;2545;50.892;5.740;2022-09-03T00:47:29;100127.88;;;16.91;59.17
5053;BME280;2545;50.892;5.740;2022-09-03T00:50:12;100113.41;;;16.88;59.07
5053;BME280;2545;50.892;5.740;2022-09-03T00:55:38;100121.47;;;16.79;59.43
5053;BME280;2545;50.892;5.740;2022-09-03T01:00:55;100132.63;;;16.73;59.40
5053;BME280;2545;50.892;5.740;2022-09-03T01:03:54;100143.81;;;16.59;60.08
5053;BME280;2545;50.892;5.740;2022-09-03T01:06:33;100136.38;;;16.48;60.24
5053;BME280;2545;50.892;5.740;2022-09-03T01:11:59;100116.88;;;16.44;60.62
5053;BME280;2545;50.892;5.740;2022-09-03T01:14:42;100120.28;;;16.44;61.06
5053;BME280;2545;50.892;5.740;2022-09-03T01:17:18;100120.56;;;16.49;60.44
5053;BME280;2545;50.892;5.740;2022-09-03T01:25:42;100133.03;;;16.39;61.56
5053;BME280;2545;50.892;5.740;2022-09-03T01:30:45;100113.38;;;16.37;62.25
5053;BME280;2545;50.892;5.740;2022-09-03T01:33:39;100122.56;;;16.47;63.16
5053;BME280;2545;50.892;5.740;2022-09-03T01:36:13;100128.22;;;16.51;62.24
5053;BME280;2545;50.892;5.740;2022-09-03T01:38:59;100108.81;;;16.53;62.02
5053;BME280;2545;50.892;5.740;2022-09-03T01:41:41;100119.75;;;16.57;62.27
5053;BME280;2545;50.892;5.740;2022-09-03T01:51:15;100121.25;;;17.03;58.70
5053;BME280;2545;50.892;5.740;2022-09-03T01:58:50;100118.41;;;17.13;59.24
5053;BME280;2545;50.892;5.740;2022-09-03T02:01:26;100121.06;;;17.05;60.40
5053;BME280;2545;50.892;5.740;2022-09-03T02:03:54;100127.44;;;17.02;60.98
5053;BME280;2545;50.892;5.740;2022-09-03T02:06:27;100125.09;;;16.78;61.15
5053;BME280;2545;50.892;5.740;2022-09-03T02:08:53;100127.94;;;16.68;61.59
5053;BME280;2545;50.892;5.740;2022-09-03T02:11:19;100127.94;;;16.68;61.77
5053;BME280;2545;50.892;5.740;2022-09-03T02:13:48;100127.13;;;16.68;62.28
5053;BME280;2545;50.892;5.740;2022-09-03T02:16:18;100124.53;;;16.68;62.89
5053;BME280;2545;50.892;5.740;2022-09-03T02:18:54;100113.94;;;16.69;63.42
5053;BME280;2545;50.892;5.740;2022-09-03T02:21:21;100107.91;;;16.69;63.58
5053;BME280;2545;50.892;5.740;2022-09-03T02:23:49;100118.53;;;16.82;63.52
5053;BME280;2545;50.892;5.740;2022-09-03T02:26:18;100109.09;;;16.81;63.46
5053;BME280;2545;50.892;5.740;2022-09-03T02:28:45;100101.66;;;16.78;63.36
5053;BME280;2545;50.892;5.740;2022-09-03T02:31:11;100104.31;;;16.84;63.00
5053;BME280;2545;50.892;5.740;2022-09-03T02:33:39;100115.41;;;16.86;63.13
5053;BME280;2545;50.892;5.740;2022-09-03T02:36:08;100101.88;;;16.68;63.63
5053;BME280;2545;50.892;5.740;2022-09-03T02:38:34;100109.63;;;16.76;63.13
5053;BME280;2545;50.892;5.740;2022-09-03T02:41:00;100107.56;;;16.72;63.30
5053;BME280;2545;50.892;5.740;2022-09-03T02:43:36;100115.44;;;16.64;62.43
5053;BME280;2545;50.892;5.740;2022-09-03T02:46:07;100107.25;;;16.67;62.69
5053;BME280;2545;50.892;5.740;2022-09-03T02:48:34;100112.16;;;16.84;61.94
5053;BME280;2545;50.892;5.740;2022-09-03T02:50:59;100105.88;;;16.94;61.60
5053;BME280;2545;50.892;5.740;2022-09-03T02:53:25;100115.13;;;16.96;62.01
5053;BME280;2545;50.892;5.740;2022-09-03T02:55:57;100114.34;;;16.96;62.22
5053;BME280;2545;50.892;5.740;2022-09-03T02:58:23;100117.47;;;16.91;62.87
5053;BME280;2545;50.892;5.740;2022-09-03T03:00:48;100119.19;;;16.84;60.97
5053;BME280;2545;50.892;5.740;2022-09-03T03:03:13;100110.44;;;16.77;62.36
5053;BME280;2545;50.892;5.740;2022-09-03T03:05:54;100116.13;;;16.80;64.89
5053;BME280;2545;50.892;5.740;2022-09-03T03:08:22;100108.00;;;16.90;64.14
5053;BME280;2545;50.892;5.740;2022-09-03T03:10:51;100108.22;;;16.88;65.32
5053;BME280;2545;50.892;5.740;2022-09-03T03:13:17;100103.81;;;16.89;64.93
5053;BME280;2545;50.892;5.740;2022-09-03T03:15:43;100109.53;;;16.84;64.65
5053;BME280;2545;50.892;5.740;2022-09-03T03:18:09;100098.84;;;16.79;63.35
5053;BME280;2545;50.892;5.740;2022-09-03T03:20:37;100107.03;;;16.91;62.37
5053;BME280;2545;50.892;5.740;2022-09-03T03:23:03;100108.03;;;17.05;61.56
5053;BME280;2545;50.892;5.740;2022-09-03T03:25:31;100111.44;;;17.20;60.15
5053;BME280;2545;50.892;5.740;2022-09-03T03:27:57;100099.50;;;17.25;59.82
5053;BME280;2545;50.892;5.740;2022-09-03T03:30:22;100111.28;;;17.36;58.75
5053;BME280;2545;50.892;5.740;2022-09-03T03:32:48;100121.06;;;17.49;58.21
5053;BME280;2545;50.892;5.740;2022-09-03T03:35:13;100108.00;;;17.49;58.71
5053;BME280;2545;50.892;5.740;2022-09-03T03:37:39;100114.84;;;17.50;59.12
5053;BME280;2545;50.892;5.740;2022-09-03T03:40:04;100116.56;;;17.42;58.14
5053;BME280;2545;50.892;5.740;2022-09-03T03:42:32;100116.94;;;17.39;57.43
5053;BME280;2545;50.892;5.740;2022-09-03T03:44:58;100117.72;;;17.40;57.99
5053;BME280;2545;50.892;5.740;2022-09-03T03:47:24;100116.56;;;17.42;58.15
5053;BME280;2545;50.892;5.740;2022-09-03T03:49:49;100101.72;;;17.43;58.23
5053;BME280;2545;50.892;5.740;2022-09-03T03:52:14;100110.63;;;17.49;56.85
5053;BME280;2545;50.892;5.740;2022-09-03T03:54:39;100108.72;;;17.42;56.93
5053;BME280;2545;50.892;5.740;2022-09-03T03:57:05;100106.22;;;17.49;57.25
5053;BME280;2545;50.892;5.740;2022-09-03T03:59:30;100101.28;;;17.54;57.39
5053;BME280;2545;50.892;5.740;2022-09-03T04:01:55;100103.53;;;17.57;57.68
5053;BME280;2545;50.892;5.740;2022-09-03T04:04:21;100116.13;;;17.68;57.23
5053;BME280;2545;50.892;5.740;2022-09-03T04:06:46;100114.59;;;17.74;59.02
5053;BME280;2545;50.892;5.740;2022-09-03T04:09:11;100097.53;;;17.57;61.63
5053;BME280;2545;50.892;5.740;2022-09-03T04:11:37;100102.53;;;17.58;62.37
5053;BME280;2545;50.892;5.740;2022-09-03T04:14:03;100102.19;;;17.47;64.83
5053;BME280;2545;50.892;5.740;2022-09-03T04:16:28;100105.34;;;17.27;66.75
5053;BME280;2545;50.892;5.740;2022-09-03T04:18:55;100118.19;;;17.14;66.55
5053;BME280;2545;50.892;5.740;2022-09-03T04:21:28;100113.44;;;17.18;66.67
5053;BME280;2545;50.892;5.740;2022-09-03T04:23:54;100113.97;;;17.28;66.97
5053;BME280;2545;50.892;5.740;2022-09-03T04:26:31;100112.53;;;17.40;67.36
5053;BME280;2545;50.892;5.740;2022-09-03T04:28:57;100110.09;;;17.38;67.18
5053;BME280;2545;50.892;5.740;2022-09-03T04:31:23;100116.41;;;17.44;67.33
5053;BME280;2545;50.892;5.740;2022-09-03T04:33:48;100102.03;;;17.33;68.51
5053;BME280;2545;50.892;5.740;2022-09-03T04:36:17;100101.56;;;17.15;71.77
5053;BME280;2545;50.892;5.740;2022-09-03T04:38:45;100108.03;;;17.05;73.10
5053;BME280;2545;50.892;5.740;2022-09-03T04:41:14;100100.94;;;16.99;75.07
5053;BME280;2545;50.892;5.740;2022-09-03T04:43:40;100108.31;;;17.10;74.66
5053;BME280;2545;50.892;5.740;2022-09-03T04:46:09;100097.25;;;17.08;75.02
5053;BME280;2545;50.892;5.740;2022-09-03T04:48:35;100097.34;;;17.00;76.23
5053;BME280;2545;50.892;5.740;2022-09-03T04:51:07;100111.00;;;17.02;76.84
5053;BME280;2545;50.892;5.740;2022-09-03T04:53:35;100105.00;;;17.01;76.10
5053;BME280;2545;50.892;5.740;2022-09-03T04:56:01;100103.16;;;17.02;75.38
5053;BME280;2545;50.892;5.740;2022-09-03T04:58:26;100097.25;;;17.08;73.41
5053;BME280;2545;50.892;5.740;2022-09-03T05:00:52;100116.56;;;17.13;69.08
5053;BME280;2545;50.892;5.740;2022-09-03T05:03:18;100124.84;;;17.17;61.06
5053;BME280;2545;50.892;5.740;2022-09-03T05:05:51;100116.66;;;17.20;60.92
5053;BME280;2545;50.892;5.740;2022-09-03T05:08:16;100119.09;;;17.21;60.60
5053;BME280;2545;50.892;5.740;2022-09-03T05:10:42;100118.56;;;17.26;59.73
5053;BME280;2545;50.892;5.740;2022-09-03T05:13:07;100110.47;;;17.21;59.57
5053;BME280;2545;50.892;5.740;2022-09-03T05:15:33;100118.41;;;17.27;59.05
5053;BME280;2545;50.892;5.740;2022-09-03T05:18:00;100107.66;;;17.22;58.42
5053;BME280;2545;50.892;5.740;2022-09-03T05:20:29;100126.94;;;17.36;58.65
5053;BME280;2545;50.892;5.740;2022-09-03T05:22:56;100114.34;;;17.39;58.69
5053;BME280;2545;50.892;5.740;2022-09-03T05:25:22;100125.91;;;17.52;57.73
5053;BME280;2545;50.892;5.740;2022-09-03T05:27:48;100114.69;;;17.51;57.42
5053;BME280;2545;50.892;5.740;2022-09-03T05:30:13;100126.13;;;17.65;57.57
5053;BME280;2545;50.892;5.740;2022-09-03T05:32:39;100119.97;;;17.72;58.05
5053;BME280;2545;50.892;5.740;2022-09-03T05:35:06;100114.13;;;17.70;57.39
5053;BME280;2545;50.892;5.740;2022-09-03T05:37:32;100112.94;;;17.73;56.73
5053;BME280;2545;50.892;5.740;2022-09-03T05:39:57;100119.44;;;17.77;57.68
5053;BME280;2545;50.892;5.740;2022-09-03T05:42:22;100125.50;;;17.63;57.64
5053;BME280;2545;50.892;5.740;2022-09-03T05:44:47;100126.13;;;17.65;59.12
5053;BME280;2545;50.892;5.740;2022-09-03T05:47:14;100125.75;;;17.68;58.64
5053;BME280;2545;50.892;5.740;2022-09-03T05:49:39;100126.19;;;17.71;59.36
5053;BME280;2545;50.892;5.740;2022-09-03T05:52:05;100122.53;;;17.66;58.91
5053;BME280;2545;50.892;5.740;2022-09-03T05:54:30;100134.75;;;17.65;58.93
5053;BME280;2545;50.892;5.740;2022-09-03T05:56:56;100129.91;;;17.62;59.56
5053;BME280;2545;50.892;5.740;2022-09-03T05:59:21;100131.78;;;17.68;59.50
5053;BME280;2545;50.892;5.740;2022-09-03T06:01:46;100116.03;;;17.62;59.68
5053;BME280;2545;50.892;5.740;2022-09-03T06:04:15;100115.94;;;17.70;60.42
5053;BME280;2545;50.892;5.740;2022-09-03T06:06:45;100125.84;;;17.74;59.70
5053;BME280;2545;50.892;5.740;2022-09-03T06:09:13;100135.34;;;17.82;58.90
5053;BME280;2545;50.892;5.740;2022-09-03T06:11:40;100120.50;;;17.82;59.73
5053;BME280;2545;50.892;5.740;2022-09-03T06:14:08;100131.44;;;17.92;59.90
5053;BME280;2545;50.892;5.740;2022-09-03T06:16:35;100136.28;;;17.95;59.86
5053;BME280;2545;50.892;5.740;2022-09-03T06:19:02;100138.53;;;17.98;58.76
5053;BME280;2545;50.892;5.740;2022-09-03T06:21:28;100142.41;;;18.03;59.56
5053;BME280;2545;50.892;5.740;2022-09-03T06:23:56;100138.63;;;18.05;58.89
5053;BME280;2545;50.892;5.740;2022-09-03T06:26:21;100138.19;;;18.23;57.80
5053;BME280;2545;50.892;5.740;2022-09-03T06:28:47;100139.94;;;18.37;57.72
5053;BME280;2545;50.892;5.740;2022-09-03T06:31:15;100134.47;;;18.32;57.06
5053;BME280;2545;50.892;5.740;2022-09-03T06:33:41;100148.81;;;18.42;56.76
5053;BME280;2545;50.892;5.740;2022-09-03T06:36:09;100141.22;;;18.62;56.54
5053;BME280;2545;50.892;5.740;2022-09-03T06:38:36;100150.03;;;18.61;56.60
5053;BME280;2545;50.892;5.740;2022-09-03T06:41:04;100143.31;;;18.52;57.56
5053;BME280;2545;50.892;5.740;2022-09-03T06:43:35;100145.03;;;18.66;56.69
5053;BME280;2545;50.892;5.740;2022-09-03T06:48:31;100142.25;;;18.68;56.11
5053;BME280;2545;50.892;5.740;2022-09-03T06:50:58;100143.16;;;18.81;55.98
5053;BME280;2545;50.892;5.740;2022-09-03T06:53:26;100142.19;;;18.89;55.42
5053;BME280;2545;50.892;5.740;2022-09-03T06:55:57;100155.28;;;19.17;55.16
5053;BME280;2545;50.892;5.740;2022-09-03T06:58:27;100151.78;;;19.09;55.58
5053;BME280;2545;50.892;5.740;2022-09-03T07:00:53;100148.53;;;19.01;55.19
5053;BME280;2545;50.892;5.740;2022-09-03T07:03:19;100157.66;;;19.12;55.65
5053;BME280;2545;50.892;5.740;2022-09-03T07:05:46;100164.41;;;18.99;55.11
5053;BME280;2545;50.892;5.740;2022-09-03T07:08:11;100163.69;;;18.84;56.42
5053;BME280;2545;50.892;5.740;2022-09-03T07:10:37;100158.94;;;18.94;55.67
5053;BME280;2545;50.892;5.740;2022-09-03T07:13:03;100156.78;;;18.77;56.21
5053;BME280;2545;50.892;5.740;2022-09-03T07:15:31;100154.75;;;18.72;56.73
5053;BME280;2545;50.892;5.740;2022-09-03T07:17:57;100168.69;;;18.79;56.70
5053;BME280;2545;50.892;5.740;2022-09-03T07:20:22;100164.97;;;18.67;56.70
5053;BME280;2545;50.892;5.740;2022-09-03T07:22:47;100165.75;;;18.46;57.61
5053;BME280;2545;50.892;5.740;2022-09-03T07:25:13;100163.72;;;18.63;57.89
5053;BME280;2545;50.892;5.740;2022-09-03T07:27:38;100168.31;;;18.82;57.06
5053;BME280;2545;50.892;5.740;2022-09-03T07:30:04;100171.25;;;19.00;56.08
5053;BME280;2545;50.892;5.740;2022-09-03T07:32:33;100162.19;;;19.31;56.05
5053;BME280;2545;50.892;5.740;2022-09-03T07:35:01;100152.75;;;19.36;54.96
5053;BME280;2545;50.892;5.740;2022-09-03T07:37:27;100166.44;;;19.66;54.47
5053;BME280;2545;50.892;5.740;2022-09-03T07:39:52;100168.31;;;19.79;53.51
5053;BME280;2545;50.892;5.740;2022-09-03T07:42:18;100169.94;;;19.86;53.15
5053;BME280;2545;50.892;5.740;2022-09-03T07:44:44;100169.66;;;19.68;53.73
5053;BME280;2545;50.892;5.740;2022-09-03T07:47:10;100157.72;;;19.59;54.36
5053;BME280;2545;50.892;5.740;2022-09-03T07:49:35;100168.09;;;19.80;54.74
5053;BME280;2545;50.892;5.740;2022-09-03T07:52:00;100160.72;;;20.03;53.80
5053;BME280;2545;50.892;5.740;2022-09-03T07:54:27;100176.53;;;20.30;52.77
5053;BME280;2545;50.892;5.740;2022-09-03T07:56:52;100169.91;;;20.34;52.40
5053;BME280;2545;50.892;5.740;2022-09-03T07:59:17;100180.00;;;20.37;52.15
5053;BME280;2545;50.892;5.740;2022-09-03T08:01:44;100171.13;;;20.44;52.03
5053;BME280;2545;50.892;5.740;2022-09-03T08:04:10;100171.34;;;20.43;51.89
5053;BME280;2545;50.892;5.740;2022-09-03T08:06:36;100171.94;;;20.45;52.35
5053;BME280;2545;50.892;5.740;2022-09-03T08:09:05;100181.44;;;20.65;53.19
5053;BME280;2545;50.892;5.740;2022-09-03T08:11:32;100174.59;;;20.77;52.47
5053;BME280;2545;50.892;5.740;2022-09-03T08:14:00;100186.28;;;20.88;52.23
5053;BME280;2545;50.892;5.740;2022-09-03T08:16:31;100180.41;;;20.99;52.74
5053;BME280;2545;50.892;5.740;2022-09-03T08:18:57;100188.09;;;21.01;52.83
5053;BME280;2545;50.892;5.740;2022-09-03T08:21:23;100188.09;;;21.14;52.70
5053;BME280;2545;50.892;5.740;2022-09-03T08:23:50;100181.63;;;21.23;52.26
5053;BME280;2545;50.892;5.740;2022-09-03T08:26:17;100170.31;;;21.22;51.99
5053;BME280;2545;50.892;5.740;2022-09-03T08:28:44;100169.47;;;21.42;51.92
5053;BME280;2545;50.892;5.740;2022-09-03T08:31:20;100169.25;;;21.43;51.77
5053;BME280;2545;50.892;5.740;2022-09-03T08:33:48;100189.75;;;21.72;51.36
5053;BME280;2545;50.892;5.740;2022-09-03T08:36:24;100193.50;;;22.03;49.94
5053;BME280;2545;50.892;5.740;2022-09-03T08:38:51;100184.28;;;22.25;49.74
5053;BME280;2545;50.892;5.740;2022-09-03T08:44:53;100193.94;;;22.62;48.93
5053;BME280;2545;50.892;5.740;2022-09-03T08:47:36;100196.63;;;22.24;50.27
5053;BME280;2545;50.892;5.740;2022-09-03T08:50:11;100200.16;;;22.43;50.84
5053;BME280;2545;50.892;5.740;2022-09-03T08:57:46;100205.78;;;22.53;50.91
5053;BME280;2545;50.892;5.740;2022-09-03T09:00:12;100197.59;;;22.61;51.78
5053;BME280;2545;50.892;5.740;2022-09-03T09:02:51;100210.53;;;22.94;51.21
5053;BME280;2545;50.892;5.740;2022-09-03T09:05:50;100213.53;;;23.22;50.25
5053;BME280;2545;50.892;5.740;2022-09-03T09:08:31;100207.59;;;23.27;51.39
5053;BME280;2545;50.892;5.740;2022-09-03T09:11:23;100212.66;;;23.28;51.90
5053;BME280;2545;50.892;5.740;2022-09-03T09:14:19;100217.53;;;23.49;51.91
5053;BME280;2545;50.892;5.740;2022-09-03T09:17:18;100218.69;;;23.53;51.45
5053;BME280;2545;50.892;5.740;2022-09-03T09:22:38;100209.28;;;23.21;51.97
5053;BME280;2545;50.892;5.740;2022-09-03T09:25:09;100222.09;;;23.36;52.19
5053;BME280;2545;50.892;5.740;2022-09-03T09:27:45;100216.06;;;23.53;50.85
5053;BME280;2545;50.892;5.740;2022-09-03T09:30:16;100209.78;;;23.55;51.07
5053;BME280;2545;50.892;5.740;2022-09-03T09:32:42;100217.75;;;23.84;50.51
5053;BME280;2545;50.892;5.740;2022-09-03T09:35:08;100220.09;;;24.11;50.59
5053;BME280;2545;50.892;5.740;2022-09-03T09:37:46;100221.53;;;24.25;49.90
5053;BME280;2545;50.892;5.740;2022-09-03T09:40:31;100218.44;;;24.28;49.23
5053;BME280;2545;50.892;5.740;2022-09-03T09:43:13;100206.72;;;24.24;50.33
5053;BME280;2545;50.892;5.740;2022-09-03T09:45:42;100210.31;;;24.11;51.01
5053;BME280;2545;50.892;5.740;2022-09-03T09:48:32;100214.41;;;24.25;50.99
5053;BME280;2545;50.892;5.740;2022-09-03T09:51:23;100219.72;;;24.37;51.27
5053;BME280;2545;50.892;5.740;2022-09-03T09:56:36;100230.88;;;24.50;49.51
5053;BME280;2545;50.892;5.740;2022-09-03T09:59:06;100215.41;;;25.07;47.87
5053;BME280;2545;50.892;5.740;2022-09-03T10:01:32;100220.69;;;25.53;47.00
5053;BME280;2545;50.892;5.740;2022-09-03T10:04:28;100214.91;;;25.68;46.87
5053;BME280;2545;50.892;5.740;2022-09-03T10:07:00;100216.38;;;25.76;46.16
5053;BME280;2545;50.892;5.740;2022-09-03T10:09:29;100220.31;;;26.01;45.53
5053;BME280;2545;50.892;5.740;2022-09-03T10:12:17;100218.59;;;25.44;46.70
5053;BME280;2545;50.892;5.740;2022-09-03T10:14:59;100218.72;;;25.37;46.96
5053;BME280;2545;50.892;5.740;2022-09-03T10:23:24;100207.47;;;25.53;47.39
5053;BME280;2545;50.892;5.740;2022-09-03T10:26:02;100209.03;;;25.66;47.31
5053;BME280;2545;50.892;5.740;2022-09-03T10:28:36;100199.50;;;25.77;46.79
5053;BME280;2545;50.892;5.740;2022-09-03T10:31:35;100207.44;;;26.33;45.84
5053;BME280;2545;50.892;5.740;2022-09-03T10:34:24;100216.50;;;27.15;43.95
5053;BME280;2545;50.892;5.740;2022-09-03T10:37:05;100211.47;;;27.35;44.19
5053;BME280;2545;50.892;5.740;2022-09-03T10:42:36;100217.50;;;27.91;41.25
5053;BME280;2545;50.892;5.740;2022-09-03T10:48:09;100206.22;;;27.57;42.80
5053;BME280;2545;50.892;5.740;2022-09-03T10:50:47;100211.47;;;27.74;42.08
5053;BME280;2545;50.892;5.740;2022-09-03T10:56:20;100208.59;;;28.24;41.54
5053;BME280;2545;50.892;5.740;2022-09-03T10:59:22;100209.63;;;29.18;39.66
5053;BME280;2545;50.892;5.740;2022-09-03T11:01:59;100206.13;;;31.02;36.43
5053;BME280;2545;50.892;5.740;2022-09-03T11:04:40;100213.16;;;32.60;34.00
5053;BME280;2545;50.892;5.740;2022-09-03T11:07:12;100218.75;;;33.87;31.95
5053;BME280;2545;50.892;5.740;2022-09-03T11:09:40;100210.00;;;33.82;31.81
5053;BME280;2545;50.892;5.740;2022-09-03T11:12:18;100209.63;;;33.70;31.64
5053;BME280;2545;50.892;5.740;2022-09-03T11:14:59;100215.84;;;35.04;30.26
5053;BME280;2545;50.892;5.740;2022-09-03T11:17:33;100207.13;;;35.53;29.42
5053;BME280;2545;50.892;5.740;2022-09-03T11:20:18;100218.16;;;36.51;28.55
5053;BME280;2545;50.892;5.740;2022-09-03T11:22:45;100206.69;;;37.38;27.09
5053;BME280;2545;50.892;5.740;2022-09-03T11:25:14;100208.41;;;36.41;28.02
5053;BME280;2545;50.892;5.740;2022-09-03T11:30:09;100206.66;;;33.90;31.35
5053;BME280;2545;50.892;5.740;2022-09-03T11:32:48;100189.28;;;34.89;29.94
5053;BME280;2545;50.892;5.740;2022-09-03T11:35:36;100190.22;;;34.98;29.53
5053;BME280;2545;50.892;5.740;2022-09-03T11:38:04;100189.81;;;35.32;29.41
5053;BME280;2545;50.892;5.740;2022-09-03T11:40:33;100186.06;;;35.33;29.11
5053;BME280;2545;50.892;5.740;2022-09-03T11:43:24;100188.72;;;36.32;27.84
5053;BME280;2545;50.892;5.740;2022-09-03T11:46:13;100180.13;;;36.66;27.75
5053;BME280;2545;50.892;5.740;2022-09-03T11:48:50;100174.16;;;37.17;27.53
5053;BME280;2545;50.892;5.740;2022-09-03T11:51:32;100188.28;;;38.05;26.00
5053;BME280;2545;50.892;5.740;2022-09-03T11:56:30;100175.84;;;33.50;30.73
5053;BME280;2545;50.892;5.740;2022-09-03T12:01:31;100175.72;;;36.79;27.48
5053;BME280;2545;50.892;5.740;2022-09-03T12:04:00;100180.94;;;38.31;25.71
5053;BME280;2545;50.892;5.740;2022-09-03T12:06:37;100180.84;;;39.29;24.60
5053;BME280;2545;50.892;5.740;2022-09-03T12:09:24;100182.25;;;36.11;27.59
5053;BME280;2545;50.892;5.740;2022-09-03T12:15:16;100180.78;;;38.27;25.52
5053;BME280;2545;50.892;5.740;2022-09-03T12:17:56;100189.19;;;37.74;25.64
5053;BME280;2545;50.892;5.740;2022-09-03T12:20:42;100181.22;;;36.21;27.50
5053;BME280;2545;50.892;5.740;2022-09-03T12:23:24;100178.88;;;36.50;27.39
5053;BME280;2545;50.892;5.740;2022-09-03T12:25:51;100187.25;;;37.49;25.95
5053;BME280;2545;50.892;5.740;2022-09-03T12:28:19;100179.09;;;35.95;27.61
5053;BME280;2545;50.892;5.740;2022-09-03T12:30:51;100183.25;;;33.58;30.91
5053;BME280;2545;50.892;5.740;2022-09-03T12:33:19;100167.19;;;32.58;32.23
5053;BME280;2545;50.892;5.740;2022-09-03T12:36:00;100173.06;;;32.89;31.85
5053;BME280;2545;50.892;5.740;2022-09-03T12:38:27;100168.81;;;30.62;35.59
5053;BME280;2545;50.892;5.740;2022-09-03T12:40:54;100162.38;;;30.07;35.21
5053;BME280;2545;50.892;5.740;2022-09-03T12:43:19;100158.97;;;30.67;34.92
5053;BME280;2545;50.892;5.740;2022-09-03T12:45:50;100163.47;;;30.87;34.26
5053;BME280;2545;50.892;5.740;2022-09-03T12:48:18;100158.91;;;31.13;34.13
5053;BME280;2545;50.892;5.740;2022-09-03T12:50:45;100162.88;;;31.26;33.59
5053;BME280;2545;50.892;5.740;2022-09-03T12:53:21;100167.16;;;31.16;34.58
5053;BME280;2545;50.892;5.740;2022-09-03T12:55:54;100142.44;;;30.05;36.11
5053;BME280;2545;50.892;5.740;2022-09-03T12:58:37;100150.69;;;30.19;36.06
5053;BME280;2545;50.892;5.740;2022-09-03T13:01:16;100155.72;;;28.81;38.45
5053;BME280;2545;50.892;5.740;2022-09-03T13:03:51;100159.94;;;29.19;37.89
5053;BME280;2545;50.892;5.740;2022-09-03T13:06:21;100162.47;;;28.30;39.36
5053;BME280;2545;50.892;5.740;2022-09-03T13:08:51;100146.50;;;27.76;40.29
5053;BME280;2545;50.892;5.740;2022-09-03T13:11:20;100152.38;;;27.78;40.53
5053;BME280;2545;50.892;5.740;2022-09-03T13:13:55;100149.44;;;28.02;39.88
5053;BME280;2545;50.892;5.740;2022-09-03T13:22:01;100169.88;;;28.91;39.01
5053;BME280;2545;50.892;5.740;2022-09-03T13:30:22;100171.06;;;29.68;37.06
5053;BME280;2545;50.892;5.740;2022-09-03T13:32:54;100170.91;;;30.09;36.16
5053;BME280;2545;50.892;5.740;2022-09-03T13:41:17;100181.28;;;31.12;34.81
5053;BME280;2545;50.892;5.740;2022-09-03T13:43:56;100167.19;;;31.01;35.00
5053;BME280;2545;50.892;5.740;2022-09-03T13:46:32;100168.25;;;31.10;34.96
5053;BME280;2545;50.892;5.740;2022-09-03T13:49:12;100170.28;;;31.49;34.31
5053;BME280;2545;50.892;5.740;2022-09-03T13:52:00;100161.47;;;31.43;34.44
5053;BME280;2545;50.892;5.740;2022-09-03T13:54:41;100168.34;;;29.47;36.71
5053;BME280;2545;50.892;5.740;2022-09-03T13:57:24;100180.91;;;28.78;38.44
5053;BME280;2545;50.892;5.740;2022-09-03T14:00:03;100171.63;;;29.18;39.15
5053;BME280;2545;50.892;5.740;2022-09-03T14:02:51;100178.38;;;30.07;39.47
5053;BME280;2545;50.892;5.740;2022-09-03T14:05:33;100166.72;;;29.41;40.58
5053;BME280;2545;50.892;5.740;2022-09-03T14:08:33;100169.50;;;29.77;40.16
5053;BME280;2545;50.892;5.740;2022-09-03T14:11:18;100170.13;;;30.09;39.87
5053;BME280;2545;50.892;5.740;2022-09-03T14:13:56;100176.28;;;31.05;37.84
5053;BME280;2545;50.892;5.740;2022-09-03T14:19:36;100174.28;;;31.95;36.14
5053;BME280;2545;50.892;5.740;2022-09-03T14:22:24;100176.53;;;31.78;35.62
5053;BME280;2545;50.892;5.740;2022-09-03T14:25:02;100176.25;;;32.23;34.80
5053;BME280;2545;50.892;5.740;2022-09-03T14:27:30;100187.94;;;33.24;32.97
5053;BME280;2545;50.892;5.740;2022-09-03T14:30:04;100181.69;;;33.76;32.64
5053;BME280;2545;50.892;5.740;2022-09-03T14:35:55;100182.06;;;36.74;29.20
5053;BME280;2545;50.892;5.740;2022-09-03T14:44:08;100194.13;;;42.35;22.03
5053;BME280;2545;50.892;5.740;2022-09-03T14:54:49;100186.03;;;38.33;25.81
5053;BME280;2545;50.892;5.740;2022-09-03T15:03:02;100188.66;;;36.99;28.23
5053;BME280;2545;50.892;5.740;2022-09-03T15:10:47;100180.06;;;34.82;31.12
5053;BME280;2545;50.892;5.740;2022-09-03T15:13:18;100171.50;;;33.97;31.31
5053;BME280;2545;50.892;5.740;2022-09-03T15:18:31;100180.72;;;35.20;29.94
5053;BME280;2545;50.892;5.740;2022-09-03T15:29:32;100197.06;;;38.65;25.42
5053;BME280;2545;50.892;5.740;2022-09-03T15:37:35;100194.72;;;40.43;23.80
5053;BME280;2545;50.892;5.740;2022-09-03T15:48:29;100203.22;;;40.00;24.26
5053;BME280;2545;50.892;5.740;2022-09-03T15:51:05;100204.41;;;39.90;23.69
5053;BME280;2545;50.892;5.740;2022-09-03T15:53:59;100195.25;;;38.06;25.57
5053;BME280;2545;50.892;5.740;2022-09-03T15:56:49;100184.25;;;35.01;29.17
5053;BME280;2545;50.892;5.740;2022-09-03T15:59:22;100186.00;;;33.53;31.31
5053;BME280;2545;50.892;5.740;2022-09-03T16:01:54;100185.44;;;32.80;32.28
5053;BME280;2545;50.892;5.740;2022-09-03T16:17:31;100184.28;;;30.60;35.57
5053;BME280;2545;50.892;5.740;2022-09-03T16:20:06;100178.66;;;30.36;36.54
5053;BME280;2545;50.892;5.740;2022-09-03T16:22:42;100185.88;;;30.51;36.99